Time;durP1;ratioP1;P1;durP2;ratioP2;P2;SDS_P1;SDS_P2;PMS_P1;PMS_P2;Temp;Humidity;BMP_temperature;BMP_pressure;BME280_temperature;BME280_humidity;BME280_pressure;Samples;Min_cycle;Max_cycle;Signal;HPM_P1;HPM_P2
2021/10/13 00:01:51;;;;;;;19.98;11.43;;;;;;;-139.48;100.00;61774.03;4918781;29;20470;-70
2021/10/13 00:04:35;;;;;;;16.77;9.90;;;;;;;-139.48;100.00;61774.03;4918747;29;20115;-70
2021/10/13 00:07:18;;;;;;;16.52;9.88;;;;;;;-139.48;100.00;61774.03;4918484;29;20117;-70
2021/10/13 00:10:03;;;;;;;17.35;9.63;;;;;;;-139.48;100.00;61774.03;4918358;29;20060;-70
2021/10/13 00:12:47;;;;;;;17.17;9.23;;;;;;;-139.48;100.00;61774.03;4905239;29;20513;-70
2021/10/13 00:15:30;;;;;;;13.68;9.18;;;;;;;-139.48;100.00;61774.03;4905272;29;20074;-69
2021/10/13 00:18:14;;;;;;;23.95;10.48;;;;;;;-139.48;100.00;61774.03;4905144;29;20067;-70
2021/10/13 00:20:59;;;;;;;19.58;10.63;;;;;;;-139.48;100.00;61774.03;4919497;29;20060;-70
2021/10/13 00:23:43;;;;;;;21.70;9.23;;;;;;;-139.48;100.00;61774.03;4918271;29;20055;-70
2021/10/13 00:26:29;;;;;;;16.25;10.10;;;;;;;-139.48;100.00;61774.03;4918407;29;20075;-70
2021/10/13 00:29:13;;;;;;;19.38;9.82;;;;;;;-139.48;100.00;61774.03;4918115;29;20421;-70
2021/10/13 00:31:57;;;;;;;16.73;8.38;;;;;;;-139.48;100.00;61774.03;4931775;29;20054;-70
2021/10/13 00:34:41;;;;;;;14.18;8.77;;;;;;;-139.48;100.00;61774.03;4904608;29;20087;-70
2021/10/13 00:37:25;;;;;;;13.98;8.48;;;;;;;-139.48;100.00;61774.03;4918979;29;20099;-69
2021/10/13 00:40:09;;;;;;;15.02;9.15;;;;;;;-139.48;100.00;61774.03;4919194;29;20123;-70
2021/10/13 00:42:53;;;;;;;13.40;8.68;;;;;;;-139.48;100.00;61774.03;4904694;29;20556;-70
2021/10/13 00:45:37;;;;;;;14.98;8.73;;;;;;;-139.48;100.00;61774.03;4918040;29;20074;-70
2021/10/13 00:48:21;;;;;;;22.50;9.27;;;;;;;-139.48;100.00;61774.03;4904718;29;20055;-71
2021/10/13 00:51:05;;;;;;;13.38;8.82;;;;;;;-139.48;100.00;61774.03;4917733;29;20524;-71
2021/10/13 00:53:49;;;;;;;14.57;9.23;;;;;;;-139.48;100.00;61774.03;4917645;29;20095;-70
2021/10/13 00:56:32;;;;;;;13.65;8.10;;;;;;;-139.48;100.00;61774.03;4917899;29;20067;-71
2021/10/13 00:59:16;;;;;;;17.40;8.70;;;;;;;-139.48;100.00;61774.03;4918091;29;20039;-71
2021/10/13 01:02:03;;;;;;;13.98;8.15;;;;;;;-139.48;100.00;61774.03;4918748;29;20050;-71
2021/10/13 01:04:53;;;;;;;11.38;7.35;;;;;;;-139.48;100.00;61774.03;4930834;29;20059;-70
2021/10/13 01:07:51;;;;;;;14.82;9.63;;;;;;;-139.48;100.00;61774.03;4931129;29;20528;-71
2021/10/13 01:10:44;;;;;;;18.65;8.68;;;;;;;-139.48;100.00;61774.03;4918510;29;20048;-71
2021/10/13 01:13:41;;;;;;;15.70;9.02;;;;;;;-139.48;100.00;61774.03;4930751;29;20051;-71
2021/10/13 01:16:42;;;;;;;16.38;9.68;;;;;;;-139.48;100.00;61774.03;4917521;29;20067;-71
2021/10/13 01:19:49;;;;;;;13.20;8.13;;;;;;;-139.48;100.00;61774.03;4917736;29;20074;-71
2021/10/13 01:23:11;;;;;;;12.38;7.45;;;;;;;-139.48;100.00;61774.03;4918055;29;20055;-71
2021/10/13 01:26:29;;;;;;;13.00;8.73;;;;;;;-139.48;100.00;61774.03;4918029;29;20470;-70
2021/10/13 01:29:16;;;;;;;13.43;8.43;;;;;;;-139.48;100.00;61774.03;4917425;29;20078;-70
2021/10/13 01:32:13;;;;;;;13.73;8.18;;;;;;;-139.48;100.00;61774.03;4903879;29;20059;-71
2021/10/13 01:34:58;;;;;;;19.13;9.20;;;;;;;-139.48;100.00;61774.03;4917120;29;20087;-71
2021/10/13 01:37:46;;;;;;;14.75;8.00;;;;;;;-139.48;100.00;61774.03;4917108;29;20467;-70
2021/10/13 01:40:33;;;;;;;12.23;7.63;;;;;;;-139.48;100.00;61774.03;4916801;29;20051;-71
2021/10/13 01:43:18;;;;;;;11.65;7.85;;;;;;;-139.48;100.00;61774.03;4916913;29;20103;-71
2021/10/13 01:46:04;;;;;;;13.10;7.57;;;;;;;-139.48;100.00;61774.03;4917101;29;20083;-71
2021/10/13 01:48:49;;;;;;;18.15;8.55;;;;;;;-139.48;100.00;61774.03;4903355;29;20051;-71
2021/10/13 01:51:34;;;;;;;13.43;8.60;;;;;;;-139.48;100.00;61774.03;4916621;29;20075;-71
2021/10/13 01:54:18;;;;;;;12.98;8.00;;;;;;;-139.48;100.00;61774.03;4918321;29;20064;-70
2021/10/13 01:57:02;;;;;;;14.50;8.43;;;;;;;-139.48;100.00;61774.03;4916928;29;20111;-71
2021/10/13 01:59:47;;;;;;;15.32;8.50;;;;;;;-139.48;100.00;61774.03;4903567;29;20090;-70
2021/10/13 02:02:32;;;;;;;10.80;7.43;;;;;;;-139.48;100.00;61774.03;4903634;29;20107;-71
2021/10/13 02:05:17;;;;;;;13.00;8.05;;;;;;;-139.48;100.00;61774.03;4903345;29;20116;-70
2021/10/13 02:08:02;;;;;;;16.13;8.93;;;;;;;-139.48;100.00;61774.03;4903396;29;20573;-71
2021/10/13 02:10:46;;;;;;;14.43;8.43;;;;;;;-139.48;100.00;61774.03;4903139;29;20111;-71
2021/10/13 02:13:32;;;;;;;20.92;7.65;;;;;;;-139.48;100.00;61774.03;4902893;29;20111;-71
2021/10/13 02:16:16;;;;;;;52.78;11.40;;;;;;;-139.48;100.00;61774.03;4903330;29;20058;-71
2021/10/13 02:19:03;;;;;;;22.50;8.27;;;;;;;-139.48;100.00;61774.03;4916468;29;20051;-69
2021/10/13 02:21:50;;;;;;;15.70;8.63;;;;;;;-139.48;100.00;61774.03;4916496;29;20115;-70
2021/10/13 02:24:40;;;;;;;92.65;13.40;;;;;;;-139.48;100.00;61774.03;4903155;29;20540;-70
2021/10/13 02:28:00;;;;;;;19.17;8.55;;;;;;;-139.48;100.00;61774.03;4916178;29;20051;-70
2021/10/13 02:30:45;;;;;;;15.13;7.75;;;;;;;-139.48;100.00;61774.03;4900315;29;20051;-70
2021/10/13 02:33:29;;;;;;;14.82;7.30;;;;;;;-139.48;100.00;61774.03;4916067;29;20066;-70
2021/10/13 02:36:13;;;;;;;16.35;8.32;;;;;;;-139.48;100.00;61774.03;4916353;29;20059;-71
2021/10/13 02:38:58;;;;;;;11.73;7.32;;;;;;;-139.48;100.00;61774.03;4903276;29;20126;-70
2021/10/13 02:41:42;;;;;;;13.27;7.25;;;;;;;-139.48;100.00;61774.03;4916477;29;20505;-70
2021/10/13 02:44:26;;;;;;;11.10;7.30;;;;;;;-139.48;100.00;61774.03;4902668;29;20051;-69
2021/10/13 02:47:22;;;;;;;12.48;7.65;;;;;;;-139.48;100.00;61774.03;4902716;29;20055;-70
2021/10/13 02:50:19;;;;;;;11.93;7.05;;;;;;;-139.48;100.00;61774.03;4902876;29;20094;-70
2021/10/13 02:53:04;;;;;;;14.65;7.32;;;;;;;-139.48;100.00;61774.03;4929332;29;20059;-70
2021/10/13 02:55:55;;;;;;;11.60;7.28;;;;;;;-139.48;100.00;61774.03;4929843;29;20058;-70
2021/10/13 02:58:41;;;;;;;11.73;7.50;;;;;;;-139.48;100.00;61774.03;4918141;29;20055;-70
2021/10/13 03:01:29;;;;;;;11.63;7.38;;;;;;;-139.48;100.00;61774.03;4906622;29;20086;-70
2021/10/13 03:04:17;;;;;;;13.25;7.10;;;;;;;-139.48;100.00;61774.03;4906580;29;20059;-69
2021/10/13 03:07:08;;;;;;;12.57;7.63;;;;;;;-139.48;100.00;61774.03;4906665;29;20086;-70
2021/10/13 03:09:59;;;;;;;11.02;6.82;;;;;;;-139.48;100.00;61774.03;4933176;29;20099;-70
2021/10/13 03:12:51;;;;;;;11.93;6.72;;;;;;;-139.48;100.00;61774.03;4919759;29;20051;-70
2021/10/13 03:15:35;;;;;;;10.25;6.40;;;;;;;-139.48;100.00;61774.03;4919665;29;20058;-69
2021/10/13 03:18:21;;;;;;;11.65;7.53;;;;;;;-139.48;100.00;61774.03;4906356;29;20050;-70
2021/10/13 03:21:06;;;;;;;11.88;6.53;;;;;;;-139.48;100.00;61774.03;4906397;29;20047;-70
2021/10/13 03:23:50;;;;;;;10.80;6.88;;;;;;;-139.48;100.00;61774.03;4919474;29;20047;-68
2021/10/13 03:26:34;;;;;;;8.93;6.22;;;;;;;-139.48;100.00;61774.03;4919494;29;20099;-70
2021/10/13 03:29:19;;;;;;;12.82;6.85;;;;;;;-139.48;100.00;61774.03;4905860;29;20058;-70
2021/10/13 03:32:03;;;;;;;12.48;6.75;;;;;;;-139.48;100.00;61774.03;4919105;29;20130;-70
2021/10/13 03:34:48;;;;;;;10.85;6.72;;;;;;;-139.48;100.00;61774.03;4919299;29;20085;-70
2021/10/13 03:37:32;;;;;;;11.52;7.43;;;;;;;-139.48;100.00;61774.03;4906318;29;20054;-70
2021/10/13 03:40:16;;;;;;;13.73;7.57;;;;;;;-139.48;100.00;61774.03;4919263;29;20066;-70
2021/10/13 03:43:01;;;;;;;9.63;5.95;;;;;;;-139.48;100.00;61774.03;4905825;29;20055;-70
2021/10/13 03:45:45;;;;;;;13.02;6.88;;;;;;;-139.48;100.00;61774.03;4905769;29;20414;-70
2021/10/13 03:48:30;;;;;;;11.68;7.18;;;;;;;-139.48;100.00;61774.03;4905658;29;20203;-70
2021/10/13 03:51:14;;;;;;;12.63;6.30;;;;;;;-139.48;100.00;61774.03;4905835;29;20509;-68
2021/10/13 03:53:58;;;;;;;;;;;;;;;-139.48;100.00;61774.03;4906012;29;20051;-70
2021/10/13 03:56:42;;;;;;;9.88;6.63;;;;;;;-139.48;100.00;61774.03;4919296;29;19965;-70
2021/10/13 03:59:26;;;;;;;;;;;;;;;-139.48;100.00;61774.03;4919378;29;20046;-70
2021/10/13 04:02:10;;;;;;;18.33;7.97;;;;;;;-139.48;100.00;61774.03;4918912;29;19921;-70
2021/10/13 04:04:54;;;;;;;;;;;;;;;-139.48;100.00;61774.03;4905517;29;20058;-70
2021/10/13 04:07:39;;;;;;;13.90;7.57;;;;;;;-139.48;100.00;61774.03;4919060;29;19966;-70
2021/10/13 04:10:23;;;;;;;11.73;7.38;;;;;;;-139.48;100.00;61774.03;4904990;29;20100;-70
2021/10/13 04:13:07;;;;;;;12.90;7.15;;;;;;;-139.48;100.00;61774.03;4905347;29;20051;-70
2021/10/13 04:15:51;;;;;;;11.40;7.45;;;;;;;-139.48;100.00;61774.03;4905326;29;20421;-70
2021/10/13 04:18:35;;;;;;;11.23;6.93;;;;;;;-139.48;100.00;61774.03;4918762;29;20119;-72
2021/10/13 04:21:19;;;;;;;10.10;6.50;;;;;;;-139.48;100.00;61774.03;4905232;29;20405;-70
2021/10/13 04:24:03;;;;;;;;;;;;;;;-139.48;100.00;61774.03;4918608;29;20603;-70
2021/10/13 04:26:47;;;;;;;12.93;7.27;;;;;;;-139.48;100.00;61774.03;4918721;29;19939;-70
2021/10/13 04:29:31;;;;;;;11.30;7.00;;;;;;;-139.48;100.00;61774.03;4918266;29;20306;-70
2021/10/13 04:32:17;;;;;;;;;;;;;;;-139.48;100.00;61774.03;4905145;29;20066;-70
2021/10/13 04:35:02;;;;;;;13.05;6.72;;;;;;;-139.48;100.00;61774.03;4918220;29;19986;-69
2021/10/13 04:37:46;;;;;;;13.95;6.53;;;;;;;-139.48;100.00;61774.03;4905176;29;20091;-70
2021/10/13 04:40:30;;;;;;;13.48;7.35;;;;;;;-139.48;100.00;61774.03;4904819;29;20039;-70
2021/10/13 04:43:14;;;;;;;12.98;6.85;;;;;;;-139.48;100.00;61774.03;4918264;29;20059;-69
2021/10/13 04:45:58;;;;;;;12.82;6.80;;;;;;;-139.48;100.00;61774.03;4918130;29;20047;-70
2021/10/13 04:48:42;;;;;;;10.38;6.80;;;;;;;-139.48;100.00;61774.03;4904630;29;20418;-70
2021/10/13 04:51:26;;;;;;;14.88;6.90;;;;;;;-139.48;100.00;61774.03;4904453;29;20107;-70
2021/10/13 04:54:11;;;;;;;10.68;6.97;;;;;;;-139.48;100.00;61774.03;4904086;29;20066;-69
2021/10/13 04:56:55;;;;;;;12.52;6.90;;;;;;;-139.48;100.00;61774.03;4904231;29;20430;-70
2021/10/13 04:59:39;;;;;;;11.07;6.68;;;;;;;-139.48;100.00;61774.03;4904591;29;20123;-70
2021/10/13 05:02:23;;;;;;;13.05;6.53;;;;;;;-139.48;100.00;61774.03;4917764;29;20055;-70
2021/10/13 05:05:07;;;;;;;12.43;6.18;;;;;;;-139.48;100.00;61774.03;4917405;29;20047;-70
2021/10/13 05:07:51;;;;;;;10.25;6.13;;;;;;;-139.48;100.00;61774.03;4904613;29;20050;-70
2021/10/13 05:10:37;;;;;;;10.15;6.53;;;;;;;-139.48;100.00;61774.03;4917579;29;20051;-70
2021/10/13 05:13:21;;;;;;;13.98;7.00;;;;;;;-139.48;100.00;61774.03;4917529;29;20094;-70
2021/10/13 05:16:05;;;;;;;12.35;7.30;;;;;;;-139.48;100.00;61774.03;4917281;29;20107;-70
2021/10/13 05:18:49;;;;;;;;;;;;;;;-139.48;100.00;61774.03;4917822;29;20107;-70
2021/10/13 05:21:33;;;;;;;12.80;7.15;;;;;;;-139.48;100.00;61774.03;4916395;29;19922;-71
2021/10/13 05:24:18;;;;;;;14.90;7.05;;;;;;;-139.48;100.00;61774.03;4904091;29;20525;-70
2021/10/13 05:27:01;;;;;;;;;;;;;;;-139.48;100.00;61774.03;4917570;29;20550;-69
2021/10/13 05:29:46;;;;;;;13.70;7.00;;;;;;;-139.48;100.00;61774.03;4917240;29;19942;-71
2021/10/13 05:32:30;;;;;;;12.50;6.40;;;;;;;-139.48;100.00;61774.03;4917476;29;20087;-70
2021/10/13 05:35:14;;;;;;;13.20;7.10;;;;;;;-139.48;100.00;61774.03;4904135;29;20098;-70
2021/10/13 05:37:58;;;;;;;12.70;6.70;;;;;;;-139.48;100.00;61774.03;4903738;29;20134;-70
2021/10/13 05:40:42;;;;;;;9.85;5.82;;;;;;;-139.48;100.00;61774.03;4917097;29;20043;-70
2021/10/13 05:43:26;;;;;;;10.55;6.45;;;;;;;-139.48;100.00;61774.03;4916906;29;20078;-70
2021/10/13 05:46:11;;;;;;;9.50;6.15;;;;;;;-139.48;100.00;61774.03;4903684;29;20099;-69
2021/10/13 05:48:55;;;;;;;10.60;6.55;;;;;;;-139.48;100.00;61774.03;4916581;29;20164;-70
2021/10/13 05:51:39;;;;;;;12.18;6.70;;;;;;;-139.48;100.00;61774.03;4916714;29;20100;-70
2021/10/13 05:54:23;;;;;;;12.30;6.70;;;;;;;-139.48;100.00;61774.03;4929843;29;20112;-70
2021/10/13 05:57:07;;;;;;;11.23;6.68;;;;;;;-139.48;100.00;61774.03;4916673;29;20051;-71
2021/10/13 05:59:58;;;;;;;11.25;6.60;;;;;;;-139.48;100.00;61774.03;4903495;29;20067;-70
2021/10/13 06:02:42;;;;;;;11.23;6.97;;;;;;;-139.48;100.00;61774.03;4904235;29;20042;-70
2021/10/13 06:05:27;;;;;;;11.02;6.18;;;;;;;-139.48;100.00;61774.03;4916705;29;20055;-70
2021/10/13 06:08:11;;;;;;;8.88;5.90;;;;;;;-139.48;100.00;61774.03;4916989;29;20103;-69
2021/10/13 06:10:55;;;;;;;10.52;6.20;;;;;;;-139.48;100.00;61774.03;4903181;29;20552;-70
2021/10/13 06:13:39;;;;;;;9.88;6.07;;;;;;;-139.48;100.00;61774.03;4902881;29;20136;-70
2021/10/13 06:16:24;;;;;;;9.20;5.60;;;;;;;-139.48;100.00;61774.03;4903373;29;20176;-70
2021/10/13 06:19:08;;;;;;;9.85;5.85;;;;;;;-139.48;100.00;61774.03;4916427;29;20082;-70
2021/10/13 06:21:52;;;;;;;8.05;5.60;;;;;;;-139.48;100.00;61774.03;4916520;29;20132;-70
2021/10/13 06:24:36;;;;;;;10.18;5.22;;;;;;;-139.48;100.00;61774.03;4902962;29;20596;-70
2021/10/13 06:27:20;;;;;;;;;;;;;;;-139.48;100.00;61774.03;4903382;29;20143;-70
2021/10/13 06:30:05;;;;;;;10.80;6.63;;;;;;;-139.48;100.00;61774.03;4916121;29;19930;-69
2021/10/13 06:32:49;;;;;;;12.18;7.05;;;;;;;-139.48;100.00;61774.03;4903005;29;20083;-70
2021/10/13 06:35:33;;;;;;;11.35;7.20;;;;;;;-139.48;100.00;61774.03;4902898;29;20086;-70
2021/10/13 06:38:17;;;;;;;10.80;7.70;;;;;;;-139.48;100.00;61774.03;4916014;29;20095;-70
2021/10/13 06:41:02;;;;;;;10.82;6.93;;;;;;;-139.48;100.00;61774.03;4902877;29;20043;-70
2021/10/13 06:43:46;;;;;;;9.20;6.70;;;;;;;-139.48;100.00;61774.03;4902591;29;20072;-70
2021/10/13 06:46:30;;;;;;;13.20;6.07;;;;;;;-139.48;100.00;61774.03;4902820;29;20055;-70
2021/10/13 06:49:14;;;;;;;9.80;6.00;;;;;;;-139.48;100.00;61774.03;4902652;29;20078;-70
2021/10/13 06:51:58;;;;;;;13.38;5.95;;;;;;;-139.48;100.00;61774.03;4916168;29;20050;-70
2021/10/13 06:54:42;;;;;;;9.50;4.97;;;;;;;-139.48;100.00;61774.03;4902332;29;20055;-70
2021/10/13 06:57:26;;;;;;;15.15;5.88;;;;;;;-139.48;100.00;61774.03;4915808;29;20422;-70
2021/10/13 07:00:11;;;;;;;10.40;5.97;;;;;;;-139.48;100.00;61774.03;4916285;29;20051;-69
2021/10/13 07:02:55;;;;;;;10.23;5.65;;;;;;;-139.48;100.00;61774.03;4902692;29;20043;-71
2021/10/13 07:05:38;;;;;;;12.15;6.43;;;;;;;-139.48;100.00;61774.03;4902390;29;20047;-70
2021/10/13 07:08:22;;;;;;;9.98;5.25;;;;;;;-139.48;100.00;61774.03;4916022;29;20055;-70
2021/10/13 07:11:09;;;;;;;12.25;6.40;;;;;;;-139.48;100.00;61774.03;4902605;29;20086;-70
2021/10/13 07:13:53;;;;;;;10.65;6.50;;;;;;;-139.48;100.00;61774.03;4916080;29;20055;-70
2021/10/13 07:16:37;;;;;;;13.43;7.32;;;;;;;-139.48;100.00;61774.03;4915626;29;20050;-70
2021/10/13 07:19:20;;;;;;;15.38;7.68;;;;;;;-139.48;100.00;61774.03;4915896;29;20501;-70
2021/10/13 07:22:04;;;;;;;14.00;6.90;;;;;;;-139.48;100.00;61774.03;4915578;29;20059;-70
2021/10/13 07:24:48;;;;;;;13.35;7.53;;;;;;;-139.48;100.00;61774.03;4915720;29;20059;-70
2021/10/13 07:27:32;;;;;;;;;;;;;;;-139.48;100.00;61774.03;4916235;29;20075;-70
2021/10/13 07:30:18;;;;;;;11.25;7.03;;;;;;;-139.48;100.00;61774.03;4928831;29;19926;-70
2021/10/13 07:33:05;;;;;;;12.27;6.57;;;;;;;-139.48;100.00;61774.03;4902782;29;20059;-71
2021/10/13 07:35:49;;;;;;;11.80;7.03;;;;;;;-139.48;100.00;61774.03;4916395;29;20473;-69
2021/10/13 07:38:33;;;;;;;11.93;7.30;;;;;;;-139.48;100.00;61774.03;4915780;29;20421;-70
2021/10/13 07:41:18;;;;;;;10.82;7.93;;;;;;;-139.48;100.00;61774.03;4915576;29;20051;-70
2021/10/13 07:44:02;;;;;;;16.17;7.95;;;;;;;-139.48;100.00;61774.03;4916444;29;20055;-71
2021/10/13 07:46:47;;;;;;;10.13;6.20;;;;;;;-139.48;100.00;61774.03;4905750;29;20502;-70
2021/10/13 07:49:31;;;;;;;14.07;6.78;;;;;;;-139.48;100.00;61774.03;4919118;29;20054;-71
2021/10/13 07:52:15;;;;;;;13.50;7.00;;;;;;;-139.48;100.00;61774.03;4905661;29;20051;-70
2021/10/13 07:54:59;;;;;;;14.63;7.10;;;;;;;-139.48;100.00;61774.03;4920241;29;20112;-69
2021/10/13 07:57:43;;;;;;;12.05;6.63;;;;;;;-139.48;100.00;61774.03;4905944;29;20051;-71
2021/10/13 08:00:27;;;;;;;11.63;6.30;;;;;;;-139.48;100.00;61774.03;4905535;29;20051;-71
2021/10/13 08:03:11;;;;;;;10.75;6.57;;;;;;;-139.48;100.00;61774.03;4918867;29;20508;-71
2021/10/13 08:05:55;;;;;;;10.55;6.35;;;;;;;-139.48;100.00;61774.03;4918836;29;20512;-71
2021/10/13 08:08:39;;;;;;;11.38;7.05;;;;;;;-139.48;100.00;61774.03;4905553;29;20100;-70
2021/10/13 08:11:24;;;;;;;9.68;6.28;;;;;;;-139.48;100.00;61774.03;4918562;29;20420;-70
2021/10/13 08:14:07;;;;;;;13.73;6.55;;;;;;;-139.48;100.00;61774.03;4905070;29;20115;-70
2021/10/13 08:16:51;;;;;;;9.63;6.03;;;;;;;-139.48;100.00;61774.03;4905514;29;20059;-70
2021/10/13 08:19:35;;;;;;;10.73;6.30;;;;;;;-139.48;100.00;61774.03;4918283;29;20102;-70
2021/10/13 08:22:19;;;;;;;8.95;5.80;;;;;;;-139.48;100.00;61774.03;4904871;29;20407;-71
2021/10/13 08:25:05;;;;;;;9.50;5.35;;;;;;;-139.48;100.00;61774.03;4918406;29;20055;-70
2021/10/13 08:27:49;;;;;;;12.32;6.53;;;;;;;-139.48;100.00;61774.03;4918276;29;20051;-70
2021/10/13 08:30:33;;;;;;;;;;;;;;;-139.48;100.00;61774.03;4918717;29;20055;-70
2021/10/13 08:33:17;;;;;;;11.03;6.20;;;;;;;-139.48;100.00;61774.03;4918254;29;19922;-70
2021/10/13 08:36:01;;;;;;;10.35;5.63;;;;;;;-139.48;100.00;61774.03;4918043;29;20051;-70
2021/10/13 08:38:45;;;;;;;8.57;5.95;;;;;;;-139.48;100.00;61774.03;4904565;29;20121;-70
2021/10/13 08:41:29;;;;;;;10.57;5.45;;;;;;;-139.48;100.00;61774.03;4905110;29;20051;-70
2021/10/13 08:44:13;;;;;;;7.65;5.80;;;;;;;-139.48;100.00;61774.03;4918054;29;20103;-69
2021/10/13 08:46:58;;;;;;;11.07;6.03;;;;;;;-139.48;100.00;61774.03;4917829;29;20138;-70
2021/10/13 08:49:42;;;;;;;8.45;5.15;;;;;;;-139.48;100.00;61774.03;4917940;29;20135;-70
2021/10/13 08:52:29;;;;;;;7.63;5.68;;;;;;;-139.48;100.00;61774.03;4917757;29;20421;-70
2021/10/13 08:55:13;;;;;;;9.82;6.18;;;;;;;-139.48;100.00;61774.03;4917244;29;20123;-70
2021/10/13 08:58:16;;;;;;;14.07;5.88;;;;;;;-139.48;100.00;61774.03;4917881;29;20087;-70
2021/10/13 09:01:02;;;;;;;9.80;6.20;;;;;;;-139.48;100.00;61774.03;4917834;29;20462;-70
2021/10/13 09:03:55;;;;;;;9.73;5.60;;;;;;;-139.48;100.00;61774.03;4918724;29;20059;-70
2021/10/13 09:06:39;;;;;;;10.85;5.70;;;;;;;-139.48;100.00;61774.03;4917696;29;20055;-70
2021/10/13 09:09:23;;;;;;;8.00;4.13;;;;;;;-139.48;100.00;61774.03;4917646;29;20142;-70
2021/10/13 09:12:07;;;;;;;8.82;4.40;;;;;;;-139.48;100.00;61774.03;4917374;29;20497;-69
2021/10/13 09:14:52;;;;;;;9.80;5.13;;;;;;;-139.48;100.00;61774.03;4918223;29;20047;-70
2021/10/13 09:17:50;;;;;;;12.25;5.53;;;;;;;-139.48;100.00;61774.03;4903944;29;20115;-70
2021/10/13 09:20:37;;;;;;;9.73;4.75;;;;;;;-139.48;100.00;61774.03;4917692;29;20094;-70
2021/10/13 09:23:29;;;;;;;6.50;4.88;;;;;;;-139.48;100.00;61774.03;4918284;29;20107;-70
2021/10/13 09:26:13;;;;;;;7.72;4.38;;;;;;;-139.48;100.00;61774.03;4917508;29;20042;-69
2021/10/13 09:28:58;;;;;;;8.23;4.95;;;;;;;-139.48;100.00;61774.03;4917285;29;20051;-70
2021/10/13 09:31:42;;;;;;;6.55;4.03;;;;;;;-139.48;100.00;61774.03;4917287;29;20087;-70
2021/10/13 09:34:27;;;;;;;5.00;3.95;;;;;;;-139.48;100.00;61774.03;4916926;29;20119;-69
2021/10/13 09:37:11;;;;;;;9.18;4.38;;;;;;;-139.48;100.00;61774.03;4904118;29;20051;-70
2021/10/13 09:40:04;;;;;;;8.15;4.38;;;;;;;-139.48;100.00;61774.03;4918109;29;20095;-70
2021/10/13 09:42:49;;;;;;;8.07;4.40;;;;;;;-139.48;100.00;61774.03;4917027;29;20497;-70
2021/10/13 09:45:37;;;;;;;9.30;4.07;;;;;;;-139.48;100.00;61774.03;4917068;29;20075;-70
2021/10/13 09:48:22;;;;;;;5.72;3.58;;;;;;;-139.48;100.00;61774.03;4903867;29;20058;-70
2021/10/13 09:51:26;;;;;;;11.45;3.83;;;;;;;-139.48;100.00;61774.03;4903472;29;20055;-70
2021/10/13 09:54:11;;;;;;;10.38;3.38;;;;;;;-139.48;100.00;61774.03;4916609;29;20051;-69
2021/10/13 09:56:55;;;;;;;7.68;3.50;;;;;;;-139.48;100.00;61774.03;4917773;29;20532;-70
2021/10/13 10:00:02;;;;;;;7.25;3.20;;;;;;;-139.48;100.00;61774.03;4916758;29;20091;-68
2021/10/13 10:02:54;;;;;;;9.10;2.88;;;;;;;-139.48;100.00;61774.03;4916655;29;20083;-71
2021/10/13 10:05:38;;;;;;;7.10;3.05;;;;;;;-139.48;100.00;61774.03;4916432;29;20179;-70
2021/10/13 10:08:22;;;;;;;5.05;2.53;;;;;;;-139.48;100.00;61774.03;4917018;29;20102;-70
2021/10/13 10:11:09;;;;;;;4.60;3.15;;;;;;;-139.48;100.00;61774.03;4903207;29;20084;-71
2021/10/13 10:13:53;;;;;;;4.55;2.45;;;;;;;-139.48;100.00;61774.03;4917346;29;20051;-70
2021/10/13 10:16:38;;;;;;;5.80;2.40;;;;;;;-139.48;100.00;61774.03;4916562;29;20095;-71
2021/10/13 10:19:23;;;;;;;8.30;2.25;;;;;;;-139.48;100.00;61774.03;4903436;29;20513;-71
2021/10/13 10:22:10;;;;;;;6.28;2.20;;;;;;;-139.48;100.00;61774.03;4916242;29;20058;-70
2021/10/13 10:24:56;;;;;;;4.15;2.40;;;;;;;-139.48;100.00;61774.03;4917195;29;20417;-71
2021/10/13 10:27:40;;;;;;;6.82;3.20;;;;;;;-139.48;100.00;61774.03;4916105;29;20164;-71
2021/10/13 10:30:25;;;;;;;10.15;2.50;;;;;;;-139.48;100.00;61774.03;4903057;29;20605;-70
2021/10/13 10:33:16;;;;;;;7.38;2.70;;;;;;;-139.48;100.00;61774.03;4916250;29;20074;-70
2021/10/13 10:36:07;;;;;;;7.75;2.78;;;;;;;-139.48;100.00;61774.03;4916379;29;20427;-71
2021/10/13 10:38:51;;;;;;;7.78;2.83;;;;;;;-139.48;100.00;61774.03;4917194;29;20079;-71
2021/10/13 10:41:42;;;;;;;6.10;2.30;;;;;;;-139.48;100.00;61774.03;4902567;29;20189;-71
2021/10/13 10:44:26;;;;;;;8.70;2.63;;;;;;;-139.48;100.00;61774.03;4917071;29;20055;-70
2021/10/13 10:47:12;;;;;;;7.68;3.30;;;;;;;-139.48;100.00;61774.03;4916944;29;20131;-71
2021/10/13 10:49:55;;;;;;;9.27;2.85;;;;;;;-139.48;100.00;61774.03;4902544;29;20096;-71
2021/10/13 10:53:13;;;;;;;7.95;2.80;;;;;;;-139.48;100.00;61774.03;4929159;29;20131;-70
2021/10/13 10:56:16;;;;;;;6.10;2.72;;;;;;;-139.48;100.00;61774.03;4915643;29;20091;-71
2021/10/13 10:59:02;;;;;;;5.68;2.78;;;;;;;-139.48;100.00;61774.03;4915729;29;20099;-71
2021/10/13 11:02:06;;;;;;;5.63;2.13;;;;;;;-139.48;100.00;61774.03;4917252;29;20119;-71
2021/10/13 11:05:04;;;;;;;6.30;2.27;;;;;;;-139.48;100.00;61774.03;4915639;29;20516;-71
2021/10/13 11:07:49;;;;;;;6.40;2.30;;;;;;;12.06;100.00;101374.50;4916792;29;20509;-71
2021/10/13 11:10:33;;;;;;;5.03;2.20;;;;;;;27.34;36.26;101356.47;4915651;29;20072;-71
2021/10/13 11:13:22;;;;;;;;;;;;;;;-139.48;100.00;61774.03;4902955;29;20123;-68
2021/10/13 11:16:07;;;;;;;6.32;2.72;;;;;;;28.59;30.25;101367.50;4915542;29;19966;-71
2021/10/13 11:18:51;;;;;;;4.00;2.28;;;;;;;-139.48;100.00;61774.03;4916773;29;20046;-71
2021/10/13 11:21:36;;;;;;;5.32;2.53;;;;;;;-139.48;100.00;61774.03;4920269;29;20070;-69
2021/10/13 11:24:20;;;;;;;4.72;2.05;;;;;;;28.84;32.49;101365.41;4919289;29;20051;-69
2021/10/13 11:27:04;;;;;;;5.43;2.50;;;;;;;28.07;31.63;101366.34;4919193;29;20437;-72
2021/10/13 11:29:48;;;;;;;6.57;2.55;;;;;;;26.39;34.20;101367.97;4906204;29;20410;-71
2021/10/13 11:32:40;;;;;;;5.47;2.30;;;;;;;24.68;36.54;101367.78;4919661;29;20078;-71
2021/10/13 11:35:24;;;;;;;6.93;2.40;;;;;;;23.32;39.83;101373.56;4919191;29;20059;-71
2021/10/13 11:38:13;;;;;;;5.18;2.10;;;;;;;21.96;42.64;101383.97;4906043;29;20107;-71
2021/10/13 11:41:13;;;;;;;10.38;2.80;;;;;;;20.95;45.12;101386.66;4920266;29;20047;-71
2021/10/13 11:44:02;;;;;;;4.95;2.30;;;;;;;20.05;48.13;101389.41;4905665;29;20067;-71
2021/10/13 11:47:04;;;;;;;4.68;1.95;;;;;;;19.14;51.29;101400.00;4905632;29;20067;-71
2021/10/13 11:49:55;;;;;;;4.13;1.90;;;;;;;18.32;53.59;101412.00;4920009;29;20459;-70
2021/10/13 11:52:41;;;;;;;4.80;2.30;;;;;;;17.61;56.57;101411.56;4919880;29;20135;-71
2021/10/13 11:55:29;;;;;;;6.65;2.10;;;;;;;16.93;60.08;101417.88;4918716;29;20054;-70
2021/10/13 11:58:23;;;;;;;5.13;2.15;;;;;;;-139.48;100.00;61774.03;4905812;29;20418;-70
2021/10/13 12:01:13;;;;;;;4.23;1.40;;;;;;;-139.48;100.00;61774.03;4918851;29;20124;-71
2021/10/13 12:03:57;;;;;;;5.57;1.40;;;;;;;-139.48;100.00;61774.03;4905582;29;20094;-70
2021/10/13 12:06:42;;;;;;;3.90;1.50;;;;;;;-139.48;100.00;61774.03;4918880;29;20132;-70
2021/10/13 12:09:26;;;;;;;3.38;1.35;;;;;;;-139.48;100.00;61774.03;4918400;29;20481;-71
2021/10/13 12:12:13;;;;;;;1.55;1.10;;;;;;;-139.48;100.00;61774.03;4918756;29;20131;-70
2021/10/13 12:14:58;;;;;;;1.63;1.17;;;;;;;-139.48;100.00;61774.03;4918880;29;20171;-71
2021/10/13 12:17:42;;;;;;;5.20;1.45;;;;;;;-139.48;100.00;61774.03;4918611;29;20054;-70
2021/10/13 12:20:26;;;;;;;4.53;1.38;;;;;;;-139.48;100.00;61774.03;4919297;29;20406;-70
2021/10/13 12:23:16;;;;;;;2.03;1.20;;;;;;;-139.48;100.00;61774.03;4918466;29;20140;-71
2021/10/13 12:26:11;;;;;;;2.20;1.40;;;;;;;-139.48;100.00;61774.03;4918204;29;20509;-71
2021/10/13 12:28:55;;;;;;;;;;;;;;;-139.48;100.00;61774.03;4919851;29;20047;-71
2021/10/13 12:31:40;;;;;;;1.77;1.42;;;;;;;-139.48;100.00;61774.03;4931271;29;19975;-70
2021/10/13 12:34:30;;;;;;;3.03;1.63;;;;;;;-139.48;100.00;61774.03;4918489;29;20055;-70